Time;durP1;ratioP1;P1;durP2;ratioP2;P2;SDS_P1;SDS_P2;PMS_P1;PMS_P2;Temp;Humidity;BMP_temperature;BMP_pressure;BME280_temperature;BME280_humidity;BME280_pressure;Samples;Min_cycle;Max_cycle;Signal;HPM_P1;HPM_P2
2020/12/17 00:01:17;;;;;;;5.00;3.22;;;16.40;71.80;;;;;;10497664;28;20037;-60
2020/12/17 00:06:18;;;;;;;5.07;3.20;;;16.40;71.80;;;;;;10496028;28;20121;-59
2020/12/17 00:11:19;;;;;;;5.47;2.90;;;16.30;71.70;;;;;;10496017;28;20024;-59
2020/12/17 00:16:19;;;;;;;4.25;3.13;;;16.30;71.70;;;;;;10497499;28;20044;-59
2020/12/17 00:21:21;;;;;;;5.50;2.80;;;16.30;71.70;;;;;;10497107;28;20028;-60
2020/12/17 00:26:25;;;;;;;4.35;2.88;;;16.30;71.70;;;;;;10489351;28;20032;-60
2020/12/17 00:31:26;;;;;;;4.38;3.08;;;16.30;71.70;;;;;;10496864;28;20050;-60
2020/12/17 00:36:27;;;;;;;4.45;3.00;;;16.30;71.70;;;;;;10497053;28;20149;-59
2020/12/17 00:41:28;;;;;;;4.43;2.95;;;16.30;71.70;;;;;;10496596;28;20495;-59
2020/12/17 00:46:29;;;;;;;4.07;2.70;;;16.30;71.70;;;;;;10496470;28;20104;-59
2020/12/17 00:51:30;;;;;;;4.40;3.20;;;16.30;71.70;;;;;;10496343;28;20029;-60
2020/12/17 00:56:30;;;;;;;4.32;2.78;;;16.30;71.70;;;;;;10496484;28;20158;-60
2020/12/17 01:01:31;;;;;;;4.35;2.88;;;16.20;71.50;;;;;;10496350;28;20099;-59
2020/12/17 01:06:32;;;;;;;5.43;3.50;;;16.30;71.60;;;;;;10502933;28;20051;-59
2020/12/17 01:11:33;;;;;;;3.20;2.58;;;16.20;71.50;;;;;;10504576;28;20044;-60
2020/12/17 01:16:34;;;;;;;3.90;2.85;;;16.20;71.50;;;;;;10503147;28;20536;-59
2020/12/17 01:21:34;;;;;;;5.72;2.85;;;16.20;71.50;;;;;;10504115;28;20108;-59
2020/12/17 01:26:35;;;;;;;4.38;3.05;;;16.20;71.60;;;;;;10504115;28;20116;-59
2020/12/17 01:31:36;;;;;;;3.60;2.55;;;16.20;71.50;;;;;;10499150;28;20120;-60
2020/12/17 01:36:37;;;;;;;4.10;2.75;;;16.20;71.60;;;;;;10503458;28;20150;-60
2020/12/17 01:41:37;;;;;;;3.40;2.50;;;16.20;71.50;;;;;;10501717;28;20043;-60
2020/12/17 01:46:38;;;;;;;5.60;3.10;;;16.20;71.50;;;;;;10501867;28;20483;-59
2020/12/17 01:51:39;;;;;;;4.22;2.72;;;16.10;71.50;;;;;;10502763;28;20032;-60
2020/12/17 01:56:43;;;;;;;3.17;2.60;;;16.10;71.40;;;;;;10495636;28;20111;-59
2020/12/17 02:01:47;;;;;;;4.13;2.40;;;16.10;71.40;;;;;;10501474;28;20024;-60
2020/12/17 02:06:49;;;;;;;4.90;2.85;;;16.10;71.40;;;;;;10502131;28;20127;-59
2020/12/17 02:11:55;;;;;;;3.65;2.30;;;16.10;71.40;;;;;;10501006;28;20025;-59
2020/12/17 02:16:56;;;;;;;3.83;2.75;;;16.10;71.40;;;;;;10501862;28;20158;-60
2020/12/17 02:21:57;;;;;;;3.53;2.70;;;16.10;71.40;;;;;;10501870;28;20037;-60
2020/12/17 02:26:58;;;;;;;4.22;2.85;;;16.10;71.40;;;;;;10491955;28;20033;-59
2020/12/17 02:31:58;;;;;;;4.45;2.40;;;16.10;71.90;;;;;;10491051;28;20029;-59
2020/12/17 02:36:59;;;;;;;4.28;2.78;;;16.10;71.30;;;;;;10498424;28;20480;-60
2020/12/17 02:42:00;;;;;;;3.08;2.20;;;16.10;71.30;;;;;;10500796;28;20067;-58
2020/12/17 02:47:00;;;;;;;5.00;2.53;;;16.10;71.30;;;;;;10516557;28;20115;-59
2020/12/17 02:52:02;;;;;;;3.47;2.45;;;16.00;71.30;;;;;;10500651;28;20025;-59
2020/12/17 02:57:03;;;;;;;4.65;2.72;;;16.00;71.30;;;;;;10500497;28;20040;-59
2020/12/17 03:02:03;;;;;;;4.38;2.92;;;16.10;71.30;;;;;;10500225;28;20553;-59
2020/12/17 03:07:04;;;;;;;3.70;2.45;;;16.00;71.30;;;;;;10499806;28;20059;-60
2020/12/17 03:12:05;;;;;;;3.22;2.13;;;16.00;71.30;;;;;;10499660;28;20024;-59
2020/12/17 03:17:06;;;;;;;3.60;2.20;;;16.00;71.30;;;;;;10489930;28;20485;-59
2020/12/17 03:22:06;;;;;;;3.00;2.22;;;16.00;71.30;;;;;;10499455;28;20055;-60
2020/12/17 03:27:07;;;;;;;4.20;2.40;;;16.00;71.30;;;;;;10498494;28;20116;-54
2020/12/17 03:32:08;;;;;;;3.67;2.70;;;16.00;71.30;;;;;;10498693;28;20036;-60
2020/12/17 03:37:08;;;;;;;3.72;2.13;;;16.00;71.30;;;;;;10497820;28;20478;-60
2020/12/17 03:42:09;;;;;;;3.35;2.10;;;16.00;71.30;;;;;;10498297;28;20032;-59
2020/12/17 03:47:10;;;;;;;3.95;2.40;;;16.00;71.30;;;;;;10498442;28;20032;-59
2020/12/17 03:52:11;;;;;;;2.60;1.83;;;15.90;71.20;;;;;;10497930;28;20025;-59
2020/12/17 03:57:12;;;;;;;3.45;2.42;;;16.00;71.30;;;;;;10498071;28;20465;-59
2020/12/17 04:02:12;;;;;;;2.92;2.03;;;16.00;71.20;;;;;;10498001;28;20064;-59
2020/12/17 04:07:13;;;;;;;2.50;2.22;;;15.90;71.20;;;;;;10497441;28;20110;-59
2020/12/17 04:12:14;;;;;;;3.17;2.22;;;15.90;71.20;;;;;;10497513;28;20036;-59
2020/12/17 04:17:14;;;;;;;3.80;2.42;;;15.90;71.20;;;;;;10496304;28;20115;-59
2020/12/17 04:22:18;;;;;;;3.45;2.20;;;15.90;71.20;;;;;;10497348;28;20020;-59
2020/12/17 04:27:19;;;;;;;2.83;1.90;;;15.90;71.20;;;;;;10495593;28;20095;-59
2020/12/17 04:32:19;;;;;;;3.17;2.10;;;15.90;71.20;;;;;;10496824;28;20031;-59
2020/12/17 04:37:20;;;;;;;2.80;1.85;;;15.90;71.10;;;;;;10496758;28;20480;-59
2020/12/17 04:42:22;;;;;;;4.30;2.00;;;15.90;71.20;;;;;;10487222;28;20518;-59
2020/12/17 04:47:28;;;;;;;2.35;1.75;;;15.90;71.10;;;;;;10495584;28;20043;-59
2020/12/17 04:52:31;;;;;;;3.00;2.13;;;15.90;71.10;;;;;;10495592;28;20107;-60
2020/12/17 04:57:33;;;;;;;2.80;1.80;;;15.80;71.10;;;;;;10496427;28;20040;-60
2020/12/17 05:02:36;;;;;;;4.95;2.20;;;15.90;71.20;;;;;;10496622;28;20048;-60
2020/12/17 05:07:37;;;;;;;3.40;2.30;;;15.90;71.20;;;;;;10496138;28;20048;-59
2020/12/17 05:12:37;;;;;;;2.78;2.22;;;15.90;71.20;;;;;;10496431;28;20021;-59
2020/12/17 05:17:46;;;;;;;3.58;2.13;;;15.80;71.50;;;;;;10483447;28;20388;-60
2020/12/17 05:22:48;;;;;;;2.33;1.67;;;15.80;71.20;;;;;;10485567;28;20029;-60
2020/12/17 05:27:49;;;;;;;2.42;1.60;;;15.80;71.10;;;;;;10495511;28;20025;-60
2020/12/17 05:32:50;;;;;;;5.13;2.45;;;15.80;71.20;;;;;;10491372;28;20354;-60
2020/12/17 05:37:51;;;;;;;2.60;1.85;;;15.80;71.20;;;;;;10495705;28;20024;-60
2020/12/17 05:42:53;;;;;;;3.28;1.88;;;15.80;71.20;;;;;;10458499;28;20028;-59
2020/12/17 05:48:27;;;;;;;3.65;1.88;;;15.80;71.20;;;;;;10479340;28;20032;-60
2020/12/17 05:53:38;;;;;;;2.75;1.67;;;15.80;71.20;;;;;;10459337;28;20390;-59
2020/12/17 05:58:44;;;;;;;3.35;2.20;;;15.80;71.20;;;;;;10500375;28;20055;-59
2020/12/17 06:03:45;;;;;;;2.30;1.58;;;15.80;71.10;;;;;;10501420;28;20035;-60
2020/12/17 06:08:51;;;;;;;2.67;1.70;;;15.80;71.20;;;;;;10502045;28;20484;-59
2020/12/17 06:13:55;;;;;;;2.40;1.80;;;15.80;71.20;;;;;;10501760;28;20020;-58
2020/12/17 06:18:58;;;;;;;3.33;1.85;;;15.80;71.20;;;;;;10501082;28;20028;-60
2020/12/17 06:24:02;;;;;;;3.42;2.00;;;15.90;71.90;;;;;;10501349;28;20032;-60
2020/12/17 06:29:17;;;;;;;3.55;2.22;;;15.90;72.20;;;;;;10515433;28;20063;-58
2020/12/17 06:34:19;;;;;;;3.95;1.88;;;16.00;72.40;;;;;;10499623;28;20456;-61
2020/12/17 06:39:20;;;;;;;4.32;1.90;;;16.00;72.60;;;;;;10515887;28;20498;-62
2020/12/17 06:44:31;;;;;;;10.02;2.78;;;16.00;72.80;;;;;;10498535;28;20122;-59
2020/12/17 06:49:32;;;;;;;14.38;2.72;;;16.10;72.40;;;;;;10499049;28;20135;-59
2020/12/17 06:54:40;;;;;;;8.77;2.58;;;16.00;72.70;;;;;;10499743;28;20112;-66
2020/12/17 06:59:46;;;;;;;10.73;2.70;;;15.90;73.20;;;;;;10499685;28;20410;-63
2020/12/17 07:04:48;;;;;;;11.85;3.15;;;16.00;73.40;;;;;;10479686;28;20028;-63
2020/12/17 07:09:53;;;;;;;7.95;2.60;;;15.90;72.90;;;;;;10495832;28;20016;-62
2020/12/17 07:14:54;;;;;;;7.25;2.00;;;15.90;72.80;;;;;;10504694;28;20028;-63
2020/12/17 07:19:55;;;;;;;7.78;2.63;;;15.80;72.80;;;;;;10496011;28;20485;-63
2020/12/17 07:24:55;;;;;;;4.22;2.30;;;15.80;72.70;;;;;;10493212;28;20032;-63
2020/12/17 07:29:59;;;;;;;7.32;2.75;;;15.80;72.60;;;;;;10497231;28;20485;-63
2020/12/17 07:35:06;;;;;;;6.70;2.25;;;15.80;72.50;;;;;;10496871;28;20047;-63
2020/12/17 07:40:25;;;;;;;5.38;2.40;;;15.80;72.60;;;;;;10496008;28;20507;-63
2020/12/17 07:45:40;;;;;;;4.65;2.65;;;15.80;72.50;;;;;;10495970;28;20032;-63
2020/12/17 07:50:41;;;;;;;5.13;2.22;;;15.70;72.50;;;;;;10478078;28;20033;-63
2020/12/17 07:55:43;;;;;;;6.13;2.58;;;15.70;72.30;;;;;;10485168;28;20036;-64
2020/12/17 08:00:44;;;;;;;3.03;1.98;;;15.70;72.30;;;;;;10493611;28;20120;-63
2020/12/17 08:05:46;;;;;;;4.65;2.63;;;15.70;72.20;;;;;;10489198;28;20058;-63
2020/12/17 08:10:47;;;;;;;3.53;3.00;;;15.70;72.20;;;;;;10488539;28;20472;-62
2020/12/17 08:16:04;;;;;;;4.13;2.60;;;15.70;72.20;;;;;;10488992;28;20024;-62
2020/12/17 08:21:10;;;;;;;5.13;2.30;;;15.70;72.20;;;;;;10492175;28;20798;-63
2020/12/17 08:26:32;;;;;;;4.50;2.08;;;15.70;72.10;;;;;;10493888;28;20437;-63
2020/12/17 08:31:33;;;;;;;9.45;2.70;;;15.70;72.10;;;;;;10495419;28;20036;-63
2020/12/17 08:36:37;;;;;;;3.97;2.30;;;15.70;72.10;;;;;;10496657;28;20021;-63
2020/12/17 08:41:53;;;;;;;3.53;2.40;;;15.70;72.10;;;;;;10495559;28;20051;-63
2020/12/17 08:46:59;;;;;;;2.58;1.95;;;15.60;72.00;;;;;;10495298;28;20484;-63
2020/12/17 08:52:00;;;;;;;2.38;1.63;;;15.60;71.90;;;;;;10481108;28;20388;-63
2020/12/17 08:57:10;;;;;;;2.63;1.90;;;15.60;71.90;;;;;;10495101;28;20428;-63
2020/12/17 09:02:11;;;;;;;;;;;15.60;71.90;;;;;;10496648;28;20078;-63
2020/12/17 09:07:12;;;;;;;3.25;1.90;;;15.60;71.80;;;;;;10477883;28;19946;-63
2020/12/17 09:12:12;;;;;;;3.65;1.98;;;15.60;71.80;;;;;;10496118;28;20112;-63
2020/12/17 09:17:16;;;;;;;3.72;2.03;;;15.60;71.80;;;;;;10494523;28;20120;-63
2020/12/17 09:22:20;;;;;;;3.42;1.92;;;15.60;71.80;;;;;;10491744;28;20111;-63
2020/12/17 09:27:29;;;;;;;3.45;2.10;;;15.60;71.80;;;;;;10500365;28;20024;-63
2020/12/17 09:32:30;;;;;;;3.28;1.50;;;15.60;71.80;;;;;;10502292;28;20111;-63
2020/12/17 09:37:31;;;;;;;2.72;1.75;;;15.60;71.70;;;;;;10502313;28;20025;-63
2020/12/17 09:42:32;;;;;;;4.13;2.17;;;15.60;71.70;;;;;;10495619;28;20032;-63
2020/12/17 09:47:34;;;;;;;2.90;1.70;;;15.60;71.70;;;;;;10501707;28;20028;-62
2020/12/17 09:52:34;;;;;;;3.20;1.65;;;15.50;71.70;;;;;;10501301;28;20488;-64
2020/12/17 09:57:44;;;;;;;2.42;1.60;;;15.50;71.60;;;;;;10518483;28;20029;-63
2020/12/17 10:02:45;;;;;;;2.38;1.63;;;15.60;71.70;;;;;;10500973;28;20033;-63
2020/12/17 10:07:46;;;;;;;2.83;1.80;;;15.60;71.70;;;;;;10501515;28;20044;-64
2020/12/17 10:12:47;;;;;;;3.08;1.67;;;15.60;72.20;;;;;;10488149;28;20477;-62
2020/12/17 10:17:47;;;;;;;5.68;2.10;;;15.50;71.60;;;;;;10469398;28;20112;-63
2020/12/17 10:22:49;;;;;;;2.10;1.40;;;15.50;71.60;;;;;;10501328;28;20060;-63
2020/12/17 10:27:52;;;;;;;3.60;2.17;;;15.50;71.60;;;;;;10495189;28;20094;-59
2020/12/17 10:32:53;;;;;;;2.50;1.70;;;15.60;71.70;;;;;;10500086;28;20477;-63
2020/12/17 10:37:53;;;;;;;2.88;1.83;;;15.60;71.70;;;;;;10482531;28;20051;-61
2020/12/17 10:42:54;;;;;;;3.38;1.60;;;15.60;71.70;;;;;;10473953;28;20113;-63
2020/12/17 10:47:55;;;;;;;1.92;1.73;;;15.70;71.40;;;;;;10474053;28;20035;-63
2020/12/17 10:52:55;;;;;;;2.17;1.35;;;16.00;70.30;;;;;;10475707;28;20024;-63
2020/12/17 10:57:56;;;;;;;2.75;1.45;;;16.70;68.10;;;;;;10499247;28;20024;-63
2020/12/17 11:02:57;;;;;;;3.78;1.30;;;17.30;66.70;;;;;;10482767;28;20029;-63
2020/12/17 11:07:57;;;;;;;2.17;1.30;;;17.50;65.60;;;;;;10513458;28;20045;-63
2020/12/17 11:12:58;;;;;;;4.35;1.60;;;17.60;65.50;;;;;;10499055;28;20111;-64
2020/12/17 11:17:59;;;;;;;2.58;1.23;;;17.50;65.80;;;;;;10499398;28;20481;-64
2020/12/17 11:22:59;;;;;;;2.33;1.25;;;17.40;66.30;;;;;;10497863;28;20033;-63
2020/12/17 11:28:00;;;;;;;2.00;1.23;;;17.30;66.90;;;;;;10497922;28;20021;-64
2020/12/17 11:33:03;;;;;;;2.75;1.35;;;17.20;67.20;;;;;;10499198;28;20042;-64
2020/12/17 11:38:03;;;;;;;2.22;1.10;;;17.00;67.70;;;;;;10487900;28;20074;-64
2020/12/17 11:43:04;;;;;;;2.80;1.75;;;16.80;68.60;;;;;;10495210;28;20498;-64
2020/12/17 11:48:05;;;;;;;2.65;1.27;;;16.60;69.20;;;;;;10489079;28;20131;-64
2020/12/17 11:53:05;;;;;;;2.10;1.42;;;16.50;69.50;;;;;;10480793;28;20151;-63
2020/12/17 11:58:06;;;;;;;3.47;1.48;;;16.40;69.80;;;;;;10485398;28;20029;-64
2020/12/17 12:03:07;;;;;;;1.90;1.27;;;16.40;69.70;;;;;;10471390;28;20043;-64
2020/12/17 12:08:07;;;;;;;2.03;1.15;;;16.40;69.70;;;;;;10475016;28;20040;-66
2020/12/17 12:13:08;;;;;;;1.95;1.20;;;16.40;69.70;;;;;;10494318;28;20099;-64
2020/12/17 12:18:09;;;;;;;2.58;1.52;;;16.50;69.50;;;;;;10496500;28;20111;-64
2020/12/17 12:23:09;;;;;;;3.15;2.05;;;16.50;69.40;;;;;;10495914;28;20077;-64
2020/12/17 12:28:13;;;;;;;3.08;1.70;;;16.50;69.50;;;;;;10496419;28;20037;-64
2020/12/17 12:33:13;;;;;;;3.33;1.45;;;16.50;69.30;;;;;;10493820;28;20020;-63
2020/12/17 12:38:14;;;;;;;2.13;1.52;;;16.60;69.30;;;;;;10496303;28;20028;-64
2020/12/17 12:43:15;;;;;;;2.53;1.50;;;16.60;69.20;;;;;;10496254;28;20566;-63
2020/12/17 12:48:15;;;;;;;1.75;1.58;;;16.60;69.20;;;;;;10494421;28;20465;-64
2020/12/17 12:53:17;;;;;;;2.00;1.23;;;16.60;69.10;;;;;;10493909;28;20029;-64
2020/12/17 12:58:17;;;;;;;2.75;1.27;;;16.60;69.10;;;;;;10493508;28;20037;-64
2020/12/17 13:03:19;;;;;;;2.65;1.40;;;16.60;69.20;;;;;;10504301;28;20099;-64
2020/12/17 13:08:20;;;;;;;1.95;1.20;;;16.60;69.20;;;;;;10504238;28;20123;-64
2020/12/17 13:13:21;;;;;;;2.22;1.50;;;16.60;69.20;;;;;;10495229;28;20021;-64
2020/12/17 13:18:22;;;;;;;2.58;1.92;;;16.60;69.10;;;;;;10502632;28;20485;-64
2020/12/17 13:23:22;;;;;;;2.85;1.00;;;16.60;69.20;;;;;;10501804;28;20492;-64
2020/12/17 13:28:23;;;;;;;3.08;1.45;;;16.60;69.10;;;;;;10503473;28;20063;-64
2020/12/17 13:33:24;;;;;;;4.22;1.48;;;16.60;68.90;;;;;;10499882;28;20051;-64
2020/12/17 13:38:25;;;;;;;2.03;1.30;;;16.60;69.00;;;;;;10503717;28;20060;-64
2020/12/17 13:43:26;;;;;;;1.83;1.20;;;16.70;68.90;;;;;;10500755;28;20389;-64
2020/12/17 13:48:27;;;;;;;3.20;1.73;;;16.70;68.70;;;;;;10485847;28;20471;-63
2020/12/17 13:53:28;;;;;;;2.15;1.55;;;16.80;68.40;;;;;;10501493;28;20100;-64
2020/12/17 13:58:29;;;;;;;2.67;1.35;;;17.00;67.50;;;;;;10501203;28;20452;-64
2020/12/17 14:03:29;;;;;;;3.22;1.15;;;17.40;66.10;;;;;;10501500;28;20056;-64
2020/12/17 14:08:30;;;;;;;1.15;0.82;;;17.60;65.60;;;;;;10500393;28;20037;-64
2020/12/17 14:13:31;;;;;;;2.13;1.27;;;17.70;65.50;;;;;;10500803;28;20089;-64
2020/12/17 14:18:32;;;;;;;2.65;1.10;;;17.60;65.90;;;;;;10500560;28;20107;-64
2020/12/17 14:23:32;;;;;;;1.80;1.23;;;17.50;66.10;;;;;;10499516;28;20028;-64
2020/12/17 14:28:33;;;;;;;1.75;1.00;;;17.50;66.60;;;;;;10481997;28;20115;-64
2020/12/17 14:33:34;;;;;;;1.67;1.00;;;17.40;66.70;;;;;;10476586;28;20021;-64
2020/12/17 14:38:35;;;;;;;2.17;1.20;;;17.50;66.50;;;;;;10481971;28;20056;-64
2020/12/17 14:43:36;;;;;;;1.67;1.00;;;17.40;66.50;;;;;;10461641;28;20033;-64
2020/12/17 14:48:36;;;;;;;2.97;1.30;;;17.50;66.30;;;;;;10491286;28;20086;-63
2020/12/17 14:53:37;;;;;;;2.47;1.00;;;17.50;66.40;;;;;;10500297;28;20009;-64
2020/12/17 14:58:38;;;;;;;1.60;1.00;;;17.50;66.20;;;;;;10497351;28;20067;-64
2020/12/17 15:03:40;;;;;;;1.73;1.00;;;17.50;66.60;;;;;;10498473;28;20036;-64
2020/12/17 15:08:41;;;;;;;1.73;1.00;;;17.40;66.60;;;;;;10498392;28;20036;-64
2020/12/17 15:13:42;;;;;;;2.08;1.00;;;17.50;66.30;;;;;;10499932;28;20028;-64
2020/12/17 15:18:43;;;;;;;1.30;0.93;;;17.50;66.30;;;;;;10498237;28;20388;-64
2020/12/17 15:23:46;;;;;;;1.92;0.80;;;17.60;66.40;;;;;;10480660;28;20061;-64
2020/12/17 15:28:48;;;;;;;1.45;0.88;;;17.60;66.70;;;;;;10500332;28;20384;-63
2020/12/17 15:33:49;;;;;;;1.25;0.85;;;17.60;66.30;;;;;;10490264;28;20052;-64
2020/12/17 15:38:50;;;;;;;2.20;0.88;;;17.50;66.60;;;;;;10498025;28;20123;-64
2020/12/17 15:43:51;;;;;;;1.60;0.90;;;17.50;66.40;;;;;;10497179;28;20044;-63
2020/12/17 15:48:52;;;;;;;1.60;0.93;;;17.50;66.50;;;;;;10507951;28;20048;-63
2020/12/17 15:53:55;;;;;;;1.33;0.80;;;17.40;66.80;;;;;;10476340;28;20054;-63
2020/12/17 15:58:55;;;;;;;1.67;0.90;;;17.50;66.40;;;;;;10492193;28;20082;-64
2020/12/17 16:03:56;;;;;;;1.92;1.02;;;17.50;66.50;;;;;;10489131;28;20060;-64
2020/12/17 16:08:57;;;;;;;1.33;0.80;;;17.60;66.30;;;;;;10481288;28;20089;-64
2020/12/17 16:13:58;;;;;;;1.90;0.90;;;17.60;66.40;;;;;;10494802;28;20035;-64
2020/12/17 16:18:58;;;;;;;1.50;1.10;;;17.40;66.80;;;;;;10502257;28;20028;-64
2020/12/17 16:23:59;;;;;;;1.70;0.90;;;17.30;67.10;;;;;;10495817;28;20032;-64
2020/12/17 16:29:00;;;;;;;1.77;0.88;;;17.30;67.20;;;;;;10488156;28;20043;-64
2020/12/17 16:34:01;;;;;;;2.00;0.90;;;17.40;66.90;;;;;;10491850;28;20481;-64
2020/12/17 16:39:02;;;;;;;2.55;1.48;;;17.50;66.70;;;;;;10477955;28;20071;-64
2020/12/17 16:44:03;;;;;;;1.98;0.80;;;17.40;67.00;;;;;;10487116;28;20103;-63
2020/12/17 16:49:03;;;;;;;1.80;1.25;;;17.40;66.80;;;;;;10492941;28;20036;-64
2020/12/17 16:54:04;;;;;;;2.17;1.33;;;17.50;66.70;;;;;;10506328;28;20548;-59
2020/12/17 16:59:05;;;;;;;10.02;1.42;;;17.50;66.70;;;;;;10495915;28;20025;-65
2020/12/17 17:04:05;;;;;;;4.38;1.73;;;17.40;67.00;;;;;;10497210;28;20021;-64
2020/12/17 17:09:06;;;;;;;8.57;1.70;;;17.50;67.00;;;;;;10492582;28;20140;-66
2020/12/17 17:14:07;;;;;;;5.63;2.08;;;17.60;66.20;;;;;;10494060;28;20023;-65
2020/12/17 17:19:08;;;;;;;3.10;1.60;;;17.60;65.90;;;;;;10496248;28;20052;-66
2020/12/17 17:24:08;;;;;;;5.90;1.70;;;17.60;67.20;;;;;;10496166;28;20115;-68
2020/12/17 17:29:09;;;;;;;5.03;2.47;;;17.70;68.10;;;;;;10489955;28;20025;-67
2020/12/17 17:34:10;;;;;;;8.98;2.92;;;17.80;68.30;;;;;;10494853;28;20032;-67
2020/12/17 17:39:11;;;;;;;3.65;1.52;;;17.80;68.70;;;;;;10494634;28;20415;-69
2020/12/17 17:44:12;;;;;;;5.40;2.13;;;17.70;69.00;;;;;;10477784;28;20036;-63
2020/12/17 17:49:13;;;;;;;6.30;2.13;;;17.70;69.30;;;;;;10518249;28;20056;-65
2020/12/17 17:54:13;;;;;;;5.75;2.30;;;17.60;69.30;;;;;;10490982;28;20100;-63
2020/12/17 17:59:14;;;;;;;6.80;1.35;;;17.50;69.90;;;;;;10499980;28;20139;-65
2020/12/17 18:04:15;;;;;;;4.95;1.60;;;17.40;70.20;;;;;;10502803;28;20036;-63
2020/12/17 18:09:16;;;;;;;8.90;1.98;;;17.20;70.30;;;;;;10496692;28;20044;-61
2020/12/17 18:14:17;;;;;;;4.03;1.65;;;17.10;70.50;;;;;;10481863;28;20033;-61
2020/12/17 18:19:17;;;;;;;2.50;1.67;;;17.00;70.50;;;;;;10490394;28;20039;-62
2020/12/17 18:24:18;;;;;;;4.15;1.83;;;17.10;70.50;;;;;;10490819;28;20028;-62
2020/12/17 18:29:19;;;;;;;5.43;1.40;;;17.00;70.40;;;;;;10500545;28;20017;-60
2020/12/17 18:34:19;;;;;;;4.50;1.55;;;17.00;70.20;;;;;;10489688;28;20020;-58
2020/12/17 18:39:20;;;;;;;3.70;1.30;;;17.00;70.20;;;;;;10497731;28;20070;-61
2020/12/17 18:44:21;;;;;;;4.72;1.45;;;17.10;70.00;;;;;;10502728;28;20599;-62
2020/12/17 18:49:22;;;;;;;4.50;1.63;;;17.20;69.60;;;;;;10499432;28;20115;-61
2020/12/17 18:54:23;;;;;;;3.42;1.48;;;17.20;69.90;;;;;;10499948;28;20477;-60
2020/12/17 18:59:23;;;;;;;3.67;1.58;;;17.30;69.60;;;;;;10500795;28;20048;-60
2020/12/17 19:04:24;;;;;;;6.32;1.90;;;17.30;69.50;;;;;;10492709;28;20105;-62
2020/12/17 19:09:25;;;;;;;3.25;1.30;;;17.20;69.50;;;;;;10497358;28;20036;-61
2020/12/17 19:14:26;;;;;;;3.22;1.40;;;17.20;69.80;;;;;;10487290;28;20020;-62
2020/12/17 19:19:27;;;;;;;4.05;2.17;;;17.20;69.70;;;;;;10469608;28;20482;-61
2020/12/17 19:24:27;;;;;;;11.15;1.63;;;17.30;69.60;;;;;;10462715;28;20496;-61
2020/12/17 19:29:28;;;;;;;2.25;1.50;;;17.30;69.30;;;;;;10487826;28;20129;-62
2020/12/17 19:34:29;;;;;;;3.80;1.40;;;17.20;69.60;;;;;;10495447;28;20043;-61
2020/12/17 19:39:30;;;;;;;5.60;1.60;;;17.20;69.70;;;;;;10495617;28;20029;-60
2020/12/17 19:44:31;;;;;;;4.40;1.38;;;17.30;69.60;;;;;;10461760;28;20044;-61
2020/12/17 19:49:32;;;;;;;4.05;1.60;;;17.30;69.60;;;;;;10468292;28;20111;-61
2020/12/17 19:54:33;;;;;;;4.78;1.40;;;17.20;69.70;;;;;;10490970;28;20074;-62
2020/12/17 19:59:33;;;;;;;3.25;1.25;;;17.30;69.60;;;;;;10496830;28;20111;-62
2020/12/17 20:04:35;;;;;;;4.88;1.50;;;17.30;69.60;;;;;;10496561;28;20021;-61
2020/12/17 20:09:36;;;;;;;2.45;1.17;;;17.20;69.50;;;;;;10495220;28;20055;-60
2020/12/17 20:14:37;;;;;;;4.22;1.23;;;17.20;69.60;;;;;;10496177;28;20099;-61
2020/12/17 20:19:38;;;;;;;3.03;1.25;;;17.20;69.90;;;;;;10495957;28;20041;-61
2020/12/17 20:24:39;;;;;;;2.50;1.25;;;17.10;70.00;;;;;;10487333;28;20037;-61
2020/12/17 20:29:40;;;;;;;3.92;1.40;;;17.00;70.10;;;;;;10491903;28;20029;-61
2020/12/17 20:34:40;;;;;;;3.53;1.27;;;17.00;70.30;;;;;;10495480;28;20016;-61
2020/12/17 20:39:41;;;;;;;5.65;1.17;;;17.00;70.40;;;;;;10496736;28;20100;-61
2020/12/17 20:44:43;;;;;;;3.85;1.08;;;16.90;70.70;;;;;;10495213;28;20099;-62
2020/12/17 20:49:44;;;;;;;9.20;1.55;;;16.80;71.00;;;;;;10493741;28;20111;-62
2020/12/17 20:54:45;;;;;;;2.33;1.38;;;16.80;71.20;;;;;;10495908;28;20033;-62
2020/12/17 20:59:45;;;;;;;4.10;1.65;;;16.70;71.20;;;;;;10495454;28;20407;-61
2020/12/17 21:04:49;;;;;;;6.95;1.70;;;16.70;71.30;;;;;;10496032;28;20473;-61
2020/12/17 21:09:50;;;;;;;3.15;1.90;;;16.60;71.40;;;;;;10502515;28;20031;-62
2020/12/17 21:14:51;;;;;;;2.25;1.08;;;16.50;71.90;;;;;;10495893;28;20325;-62
2020/12/17 21:19:55;;;;;;;4.70;1.45;;;16.50;71.30;;;;;;10496025;28;20123;-61
2020/12/17 21:24:56;;;;;;;2.65;1.10;;;16.50;71.30;;;;;;10504116;28;20133;-61
2020/12/17 21:29:57;;;;;;;2.10;1.30;;;16.50;71.20;;;;;;10503849;28;20548;-61
2020/12/17 21:34:58;;;;;;;1.58;1.10;;;16.40;71.30;;;;;;10503636;28;20085;-62
2020/12/17 21:39:59;;;;;;;2.47;1.02;;;16.40;71.30;;;;;;10503706;28;20119;-62
2020/12/17 21:44:59;;;;;;;2.50;1.38;;;16.40;71.30;;;;;;10502995;28;20025;-62
2020/12/17 21:50:01;;;;;;;3.17;1.30;;;16.40;71.30;;;;;;10502825;28;20120;-62
2020/12/17 21:55:04;;;;;;;2.63;1.30;;;16.30;71.20;;;;;;10502605;28;20099;-61
2020/12/17 22:00:07;;;;;;;1.85;1.25;;;16.30;71.30;;;;;;10502965;28;20025;-62
2020/12/17 22:05:08;;;;;;;3.65;1.63;;;16.30;71.30;;;;;;10500980;28;20389;-62
2020/12/17 22:10:09;;;;;;;2.20;1.13;;;16.30;71.20;;;;;;10501992;28;20039;-62
2020/12/17 22:15:09;;;;;;;2.33;1.20;;;16.20;71.20;;;;;;10502186;28;20028;-62
2020/12/17 22:20:10;;;;;;;2.67;1.40;;;16.20;71.20;;;;;;10501890;28;20077;-61
2020/12/17 22:25:11;;;;;;;2.40;1.40;;;16.20;71.20;;;;;;10500076;28;20439;-61
2020/12/17 22:30:12;;;;;;;2.63;1.42;;;16.20;71.30;;;;;;10500527;28;20048;-62
2020/12/17 22:35:12;;;;;;;2.80;1.30;;;16.10;71.20;;;;;;10500895;28;20032;-62
2020/12/17 22:40:13;;;;;;;2.95;1.23;;;16.10;71.20;;;;;;10516763;28;20028;-61
2020/12/17 22:45:14;;;;;;;1.98;1.30;;;16.10;71.20;;;;;;10501025;28;20062;-62
2020/12/17 22:50:15;;;;;;;4.25;1.90;;;16.10;71.10;;;;;;10499145;28;20028;-61
2020/12/17 22:55:15;;;;;;;2.10;1.85;;;16.10;71.10;;;;;;10498625;28;20058;-62
2020/12/17 23:00:16;;;;;;;2.75;1.60;;;16.10;71.00;;;;;;10499991;28;20154;-61
2020/12/17 23:05:17;;;;;;;2.17;1.15;;;16.10;71.00;;;;;;10499851;28;20135;-61
2020/12/17 23:10:17;;;;;;;2.25;1.35;;;16.10;71.00;;;;;;10498559;28;20035;-61
2020/12/17 23:15:18;;;;;;;2.15;1.48;;;16.00;70.90;;;;;;10499691;28;20103;-60
2020/12/17 23:20:19;;;;;;;2.17;1.48;;;16.00;70.90;;;;;;10499530;28;20031;-61
2020/12/17 23:25:19;;;;;;;1.92;1.30;;;16.00;71.00;;;;;;10497945;28;20033;-61
2020/12/17 23:30:20;;;;;;;2.78;1.50;;;16.00;71.00;;;;;;10499554;28;20476;-61
2020/12/17 23:35:21;;;;;;;2.67;1.40;;;16.00;71.00;;;;;;10514951;28;20472;-60
2020/12/17 23:40:21;;;;;;;2.55;1.42;;;16.00;71.00;;;;;;10497587;28;20028;-61
2020/12/17 23:45:22;;;;;;;2.40;1.40;;;16.00;70.90;;;;;;10502405;28;20029;-62
2020/12/17 23:50:23;;;;;;;2.53;1.65;;;16.00;70.90;;;;;;10498497;28;20103;-61
2020/12/17 23:55:23;;;;;;;2.85;1.30;;;16.00;70.90;;;;;;10480638;28;20492;-61
